sensor_id;sensor_type;location;lat;lon;timestamp;temperature;humidity
6788;DHT22;3431;47.966;10.268;2022-09-27T00:00:06;9.50;99.90
6788;DHT22;3431;47.966;10.268;2022-09-27T00:00:33;9.50;99.90
6788;DHT22;3431;47.966;10.268;2022-09-27T00:00:57;9.50;99.90
6788;DHT22;3431;47.966;10.268;2022-09-27T00:01:20;9.50;99.90
6788;DHT22;3431;47.966;10.268;2022-09-27T00:01:42;9.50;99.90
6788;DHT22;3431;47.966;10.268;2022-09-27T00:02:04;9.60;99.90
6788;DHT22;3431;47.966;10.268;2022-09-27T00:02:26;9.50;99.90
6788;DHT22;3431;47.966;10.268;2022-09-27T00:02:49;9.50;99.90
6788;DHT22;3431;47.966;10.268;2022-09-27T00:03:12;9.50;99.90
6788;DHT22;3431;47.966;10.268;2022-09-27T00:03:33;9.50;99.90
6788;DHT22;3431;47.966;10.268;2022-09-27T00:03:55;9.50;99.90
6788;DHT22;3431;47.966;10.268;2022-09-27T00:04:19;9.50;99.90
6788;DHT22;3431;47.966;10.268;2022-09-27T00:04:40;9.50;99.90
6788;DHT22;3431;47.966;10.268;2022-09-27T00:05:02;9.50;99.90
6788;DHT22;3431;47.966;10.268;2022-09-27T00:05:24;9.50;99.90
6788;DHT22;3431;47.966;10.268;2022-09-27T00:05:46;9.50;99.90
6788;DHT22;3431;47.966;10.268;2022-09-27T00:06:12;9.50;99.90
6788;DHT22;3431;47.966;10.268;2022-09-27T00:06:34;9.50;99.90
6788;DHT22;3431;47.966;10.268;2022-09-27T00:06:56;9.50;99.90
6788;DHT22;3431;47.966;10.268;2022-09-27T00:07:18;9.50;99.90
6788;DHT22;3431;47.966;10.268;2022-09-27T00:07:40;9.50;99.90
6788;DHT22;3431;47.966;10.268;2022-09-27T00:08:02;9.50;99.90
6788;DHT22;3431;47.966;10.268;2022-09-27T00:08:24;9.50;99.90
6788;DHT22;3431;47.966;10.268;2022-09-27T00:08:46;9.50;99.90
6788;DHT22;3431;47.966;10.268;2022-09-27T00:09:09;9.50;99.90
6788;DHT22;3431;47.966;10.268;2022-09-27T00:09:32;9.50;99.90
6788;DHT22;3431;47.966;10.268;2022-09-27T00:09:54;9.50;99.90
6788;DHT22;3431;47.966;10.268;2022-09-27T00:10:16;9.50;99.90
6788;DHT22;3431;47.966;10.268;2022-09-27T00:10:37;9.50;99.90
6788;DHT22;3431;47.966;10.268;2022-09-27T00:11:00;9.50;99.90
6788;DHT22;3431;47.966;10.268;2022-09-27T00:11:26;9.50;99.90
6788;DHT22;3431;47.966;10.268;2022-09-27T00:11:48;9.50;99.90
6788;DHT22;3431;47.966;10.268;2022-09-27T00:12:11;9.50;99.90
6788;DHT22;3431;47.966;10.268;2022-09-27T00:12:32;9.50;99.90
6788;DHT22;3431;47.966;10.268;2022-09-27T00:12:55;9.40;99.90
6788;DHT22;3431;47.966;10.268;2022-09-27T00:13:18;9.50;99.90
6788;DHT22;3431;47.966;10.268;2022-09-27T00:13:39;9.40;99.90
6788;DHT22;3431;47.966;10.268;2022-09-27T00:14:02;9.50;99.90
6788;DHT22;3431;47.966;10.268;2022-09-27T00:14:25;9.40;99.90
6788;DHT22;3431;47.966;10.268;2022-09-27T00:14:48;9.40;99.90
6788;DHT22;3431;47.966;10.268;2022-09-27T00:15:10;9.40;99.90
6788;DHT22;3431;47.966;10.268;2022-09-27T00:15:32;9.40;99.90
6788;DHT22;3431;47.966;10.268;2022-09-27T00:15:58;9.50;99.90
6788;DHT22;3431;47.966;10.268;2022-09-27T00:16:21;9.40;99.90
6788;DHT22;3431;47.966;10.268;2022-09-27T00:16:43;9.40;99.90
6788;DHT22;3431;47.966;10.268;2022-09-27T00:17:05;9.50;99.90
6788;DHT22;3431;47.966;10.268;2022-09-27T00:17:27;9.50;99.90
6788;DHT22;3431;47.966;10.268;2022-09-27T00:17:50;9.40;99.90
6788;DHT22;3431;47.966;10.268;2022-09-27T00:18:12;9.40;99.90
6788;DHT22;3431;47.966;10.268;2022-09-27T00:18:34;9.40;99.90
6788;DHT22;3431;47.966;10.268;2022-09-27T00:18:57;9.40;99.90
6788;DHT22;3431;47.966;10.268;2022-09-27T00:19:21;9.40;99.90
6788;DHT22;3431;47.966;10.268;2022-09-27T00:19:44;9.40;99.90
6788;DHT22;3431;47.966;10.268;2022-09-27T00:20:06;9.40;99.90
6788;DHT22;3431;47.966;10.268;2022-09-27T00:20:28;9.40;99.90
6788;DHT22;3431;47.966;10.268;2022-09-27T00:20:51;9.40;99.90
6788;DHT22;3431;47.966;10.268;2022-09-27T00:21:13;9.40;99.90
6788;DHT22;3431;47.966;10.268;2022-09-27T00:21:35;9.40;99.90
6788;DHT22;3431;47.966;10.268;2022-09-27T00:21:57;9.40;99.90
6788;DHT22;3431;47.966;10.268;2022-09-27T00:22:21;9.40;99.90
6788;DHT22;3431;47.966;10.268;2022-09-27T00:22:44;9.40;99.90
6788;DHT22;3431;47.966;10.268;2022-09-27T00:23:06;9.40;99.90
6788;DHT22;3431;47.966;10.268;2022-09-27T00:23:27;9.40;99.90
6788;DHT22;3431;47.966;10.268;2022-09-27T00:23:50;9.40;99.90
6788;DHT22;3431;47.966;10.268;2022-09-27T00:24:13;9.40;99.90
6788;DHT22;3431;47.966;10.268;2022-09-27T00:24:35;9.40;99.90
6788;DHT22;3431;47.966;10.268;2022-09-27T00:24:56;9.40;99.90
6788;DHT22;3431;47.966;10.268;2022-09-27T00:25:19;9.40;99.90
6788;DHT22;3431;47.966;10.268;2022-09-27T00:25:41;9.40;99.90
6788;DHT22;3431;47.966;10.268;2022-09-27T00:26:03;9.40;99.90
6788;DHT22;3431;47.966;10.268;2022-09-27T00:26:25;9.40;99.90
6788;DHT22;3431;47.966;10.268;2022-09-27T00:26:48;9.40;99.90
6788;DHT22;3431;47.966;10.268;2022-09-27T00:27:10;9.30;99.90
6788;DHT22;3431;47.966;10.268;2022-09-27T00:27:32;9.40;99.90
6788;DHT22;3431;47.966;10.268;2022-09-27T00:27:54;9.30;99.90
6788;DHT22;3431;47.966;10.268;2022-09-27T00:28:16;9.30;99.90
6788;DHT22;3431;47.966;10.268;2022-09-27T00:28:38;9.30;99.90
6788;DHT22;3431;47.966;10.268;2022-09-27T00:29:00;9.30;99.90
6788;DHT22;3431;47.966;10.268;2022-09-27T00:29:21;9.30;99.90
6788;DHT22;3431;47.966;10.268;2022-09-27T00:29:44;9.30;99.90
6788;DHT22;3431;47.966;10.268;2022-09-27T00:30:09;9.30;99.90
6788;DHT22;3431;47.966;10.268;2022-09-27T00:30:31;9.30;99.90
6788;DHT22;3431;47.966;10.268;2022-09-27T00:30:52;9.30;99.90
6788;DHT22;3431;47.966;10.268;2022-09-27T00:31:18;9.30;99.90
6788;DHT22;3431;47.966;10.268;2022-09-27T00:31:43;9.30;99.90
6788;DHT22;3431;47.966;10.268;2022-09-27T00:32:05;9.30;99.90
6788;DHT22;3431;47.966;10.268;2022-09-27T00:32:27;9.30;99.90
6788;DHT22;3431;47.966;10.268;2022-09-27T00:32:49;9.20;99.90
6788;DHT22;3431;47.966;10.268;2022-09-27T00:33:13;9.30;99.90
6788;DHT22;3431;47.966;10.268;2022-09-27T00:33:35;9.20;99.90
6788;DHT22;3431;47.966;10.268;2022-09-27T00:33:59;9.20;99.90
6788;DHT22;3431;47.966;10.268;2022-09-27T00:34:23;9.20;99.90
6788;DHT22;3431;47.966;10.268;2022-09-27T00:34:44;9.20;99.90
6788;DHT22;3431;47.966;10.268;2022-09-27T00:35:07;9.20;99.90
6788;DHT22;3431;47.966;10.268;2022-09-27T00:35:28;9.20;99.90
6788;DHT22;3431;47.966;10.268;2022-09-27T00:35:51;9.30;99.90
6788;DHT22;3431;47.966;10.268;2022-09-27T00:36:13;9.20;99.90
6788;DHT22;3431;47.966;10.268;2022-09-27T00:36:35;9.20;99.90
6788;DHT22;3431;47.966;10.268;2022-09-27T00:36:57;9.20;99.90
6788;DHT22;3431;47.966;10.268;2022-09-27T00:37:19;9.20;99.90
6788;DHT22;3431;47.966;10.268;2022-09-27T00:37:41;9.20;99.90
6788;DHT22;3431;47.966;10.268;2022-09-27T00:38:03;9.20;99.90
6788;DHT22;3431;47.966;10.268;2022-09-27T00:38:24;9.20;99.90
6788;DHT22;3431;47.966;10.268;2022-09-27T00:38:47;9.20;99.90
6788;DHT22;3431;47.966;10.268;2022-09-27T00:39:10;9.10;99.90
6788;DHT22;3431;47.966;10.268;2022-09-27T00:39:31;9.20;99.90
6788;DHT22;3431;47.966;10.268;2022-09-27T00:39:53;9.20;99.90
6788;DHT22;3431;47.966;10.268;2022-09-27T00:40:15;9.20;99.90
6788;DHT22;3431;47.966;10.268;2022-09-27T00:40:38;9.20;99.90
6788;DHT22;3431;47.966;10.268;2022-09-27T00:41:00;9.20;99.90
6788;DHT22;3431;47.966;10.268;2022-09-27T00:41:25;9.20;99.90
6788;DHT22;3431;47.966;10.268;2022-09-27T00:41:47;9.20;99.90
6788;DHT22;3431;47.966;10.268;2022-09-27T00:42:10;9.10;99.90
6788;DHT22;3431;47.966;10.268;2022-09-27T00:42:32;9.20;99.90
6788;DHT22;3431;47.966;10.268;2022-09-27T00:42:54;9.10;99.90
6788;DHT22;3431;47.966;10.268;2022-09-27T00:43:18;9.20;99.90
6788;DHT22;3431;47.966;10.268;2022-09-27T00:43:46;9.20;99.90
6788;DHT22;3431;47.966;10.268;2022-09-27T00:44:48;9.10;99.90
6788;DHT22;3431;47.966;10.268;2022-09-27T00:45:16;9.20;99.90
6788;DHT22;3431;47.966;10.268;2022-09-27T00:45:39;9.20;99.90
6788;DHT22;3431;47.966;10.268;2022-09-27T00:46:02;9.10;99.90
6788;DHT22;3431;47.966;10.268;2022-09-27T00:46:29;9.10;99.90
6788;DHT22;3431;47.966;10.268;2022-09-27T00:46:58;9.10;99.90
6788;DHT22;3431;47.966;10.268;2022-09-27T00:47:26;9.10;99.90
6788;DHT22;3431;47.966;10.268;2022-09-27T00:47:52;9.10;99.90
6788;DHT22;3431;47.966;10.268;2022-09-27T00:48:19;9.10;99.90
6788;DHT22;3431;47.966;10.268;2022-09-27T00:48:43;9.10;99.90
6788;DHT22;3431;47.966;10.268;2022-09-27T00:49:09;9.10;99.90
6788;DHT22;3431;47.966;10.268;2022-09-27T00:49:34;9.10;99.90
6788;DHT22;3431;47.966;10.268;2022-09-27T00:50:02;9.10;99.90
6788;DHT22;3431;47.966;10.268;2022-09-27T00:50:28;9.10;99.90
6788;DHT22;3431;47.966;10.268;2022-09-27T00:50:53;9.10;99.90
6788;DHT22;3431;47.966;10.268;2022-09-27T00:51:16;9.10;99.90
6788;DHT22;3431;47.966;10.268;2022-09-27T00:51:38;9.10;99.90
6788;DHT22;3431;47.966;10.268;2022-09-27T00:52:04;9.10;99.90
6788;DHT22;3431;47.966;10.268;2022-09-27T00:52:32;9.10;99.90
6788;DHT22;3431;47.966;10.268;2022-09-27T00:53:09;9.00;99.90
6788;DHT22;3431;47.966;10.268;2022-09-27T00:53:35;9.00;99.90
6788;DHT22;3431;47.966;10.268;2022-09-27T00:53:59;9.00;99.90
6788;DHT22;3431;47.966;10.268;2022-09-27T00:54:23;9.00;99.90
6788;DHT22;3431;47.966;10.268;2022-09-27T00:54:52;9.00;99.90
6788;DHT22;3431;47.966;10.268;2022-09-27T00:55:17;9.00;99.90
6788;DHT22;3431;47.966;10.268;2022-09-27T00:55:41;9.00;99.90
6788;DHT22;3431;47.966;10.268;2022-09-27T00:56:09;9.00;99.90
6788;DHT22;3431;47.966;10.268;2022-09-27T00:56:35;8.90;99.90
6788;DHT22;3431;47.966;10.268;2022-09-27T00:56:57;9.00;99.90
6788;DHT22;3431;47.966;10.268;2022-09-27T00:57:21;8.90;99.90
6788;DHT22;3431;47.966;10.268;2022-09-27T00:57:44;8.90;99.90
6788;DHT22;3431;47.966;10.268;2022-09-27T00:58:06;8.90;99.90
6788;DHT22;3431;47.966;10.268;2022-09-27T00:58:32;8.90;99.90
6788;DHT22;3431;47.966;10.268;2022-09-27T00:58:59;8.90;99.90
6788;DHT22;3431;47.966;10.268;2022-09-27T00:59:25;8.90;99.90
6788;DHT22;3431;47.966;10.268;2022-09-27T00:59:50;8.90;99.90
6788;DHT22;3431;47.966;10.268;2022-09-27T01:00:15;8.90;99.90
6788;DHT22;3431;47.966;10.268;2022-09-27T01:00:41;8.90;99.90
6788;DHT22;3431;47.966;10.268;2022-09-27T01:01:06;8.90;99.90
6788;DHT22;3431;47.966;10.268;2022-09-27T01:01:31;8.90;99.90
6788;DHT22;3431;47.966;10.268;2022-09-27T01:01:53;8.90;99.90
6788;DHT22;3431;47.966;10.268;2022-09-27T01:02:15;8.90;99.90
6788;DHT22;3431;47.966;10.268;2022-09-27T01:02:39;8.90;99.90
6788;DHT22;3431;47.966;10.268;2022-09-27T01:03:05;8.90;99.90
6788;DHT22;3431;47.966;10.268;2022-09-27T01:03:33;8.90;99.90
6788;DHT22;3431;47.966;10.268;2022-09-27T01:03:59;8.90;99.90
6788;DHT22;3431;47.966;10.268;2022-09-27T01:04:25;8.90;99.90
6788;DHT22;3431;47.966;10.268;2022-09-27T01:04:48;8.90;99.90
6788;DHT22;3431;47.966;10.268;2022-09-27T01:05:13;8.90;99.90
6788;DHT22;3431;47.966;10.268;2022-09-27T01:05:35;8.90;99.90
6788;DHT22;3431;47.966;10.268;2022-09-27T01:05:58;8.90;99.90
6788;DHT22;3431;47.966;10.268;2022-09-27T01:06:21;8.80;99.90
6788;DHT22;3431;47.966;10.268;2022-09-27T01:06:43;8.90;99.90
6788;DHT22;3431;47.966;10.268;2022-09-27T01:07:05;8.80;99.90
6788;DHT22;3431;47.966;10.268;2022-09-27T01:07:27;8.90;99.90
6788;DHT22;3431;47.966;10.268;2022-09-27T01:07:49;8.90;99.90
6788;DHT22;3431;47.966;10.268;2022-09-27T01:08:11;8.90;99.90
6788;DHT22;3431;47.966;10.268;2022-09-27T01:08:33;8.90;99.90
6788;DHT22;3431;47.966;10.268;2022-09-27T01:08:57;8.90;99.90
6788;DHT22;3431;47.966;10.268;2022-09-27T01:09:19;8.90;99.90
6788;DHT22;3431;47.966;10.268;2022-09-27T01:09:41;8.90;99.90
6788;DHT22;3431;47.966;10.268;2022-09-27T01:10:04;8.80;99.90
6788;DHT22;3431;47.966;10.268;2022-09-27T01:10:32;8.80;99.90
6788;DHT22;3431;47.966;10.268;2022-09-27T01:11:09;8.90;99.90
6788;DHT22;3431;47.966;10.268;2022-09-27T01:11:39;8.80;99.90
6788;DHT22;3431;47.966;10.268;2022-09-27T01:12:12;8.80;99.90
6788;DHT22;3431;47.966;10.268;2022-09-27T01:12:45;8.80;99.90
6788;DHT22;3431;47.966;10.268;2022-09-27T01:13:16;8.80;99.90
6788;DHT22;3431;47.966;10.268;2022-09-27T01:13:47;8.80;99.90
6788;DHT22;3431;47.966;10.268;2022-09-27T01:14:29;8.80;99.90
6788;DHT22;3431;47.966;10.268;2022-09-27T01:15:05;8.80;99.90
6788;DHT22;3431;47.966;10.268;2022-09-27T01:15:39;8.80;99.90
6788;DHT22;3431;47.966;10.268;2022-09-27T01:16:08;8.80;99.90
6788;DHT22;3431;47.966;10.268;2022-09-27T01:16:35;8.80;99.90
6788;DHT22;3431;47.966;10.268;2022-09-27T01:17:08;8.80;99.90
6788;DHT22;3431;47.966;10.268;2022-09-27T01:17:42;8.80;99.90
6788;DHT22;3431;47.966;10.268;2022-09-27T01:18:18;8.80;99.90
6788;DHT22;3431;47.966;10.268;2022-09-27T01:18:50;8.80;99.90
6788;DHT22;3431;47.966;10.268;2022-09-27T01:19:31;8.80;99.90
6788;DHT22;3431;47.966;10.268;2022-09-27T01:20:28;8.80;99.90
6788;DHT22;3431;47.966;10.268;2022-09-27T01:22:05;8.80;99.90
6788;DHT22;3431;47.966;10.268;2022-09-27T01:22:32;8.70;99.90
6788;DHT22;3431;47.966;10.268;2022-09-27T01:23:07;8.80;99.90
6788;DHT22;3431;47.966;10.268;2022-09-27T01:23:54;8.70;99.90
6788;DHT22;3431;47.966;10.268;2022-09-27T01:24:30;8.70;99.90
6788;DHT22;3431;47.966;10.268;2022-09-27T01:25:10;8.80;99.90
6788;DHT22;3431;47.966;10.268;2022-09-27T01:25:49;8.80;99.90
6788;DHT22;3431;47.966;10.268;2022-09-27T01:26:26;8.80;99.90
6788;DHT22;3431;47.966;10.268;2022-09-27T01:28:18;8.80;99.90
6788;DHT22;3431;47.966;10.268;2022-09-27T01:28:55;8.70;99.90
6788;DHT22;3431;47.966;10.268;2022-09-27T01:29:25;8.70;99.90
6788;DHT22;3431;47.966;10.268;2022-09-27T01:30:11;8.80;99.90
6788;DHT22;3431;47.966;10.268;2022-09-27T01:30:43;8.70;99.90
6788;DHT22;3431;47.966;10.268;2022-09-27T01:31:13;8.70;99.90
6788;DHT22;3431;47.966;10.268;2022-09-27T01:31:43;8.70;99.90
6788;DHT22;3431;47.966;10.268;2022-09-27T01:32:15;8.70;99.90
6788;DHT22;3431;47.966;10.268;2022-09-27T01:32:46;8.70;99.90
6788;DHT22;3431;47.966;10.268;2022-09-27T01:33:17;8.70;99.90
6788;DHT22;3431;47.966;10.268;2022-09-27T01:33:46;8.70;99.90
6788;DHT22;3431;47.966;10.268;2022-09-27T01:34:17;8.70;99.90
6788;DHT22;3431;47.966;10.268;2022-09-27T01:34:46;8.70;99.90
6788;DHT22;3431;47.966;10.268;2022-09-27T01:35:14;8.70;99.90
6788;DHT22;3431;47.966;10.268;2022-09-27T01:35:45;8.70;99.90
6788;DHT22;3431;47.966;10.268;2022-09-27T01:36:24;8.70;99.90
6788;DHT22;3431;47.966;10.268;2022-09-27T01:36:53;8.70;99.90
6788;DHT22;3431;47.966;10.268;2022-09-27T01:37:21;8.70;99.90
6788;DHT22;3431;47.966;10.268;2022-09-27T01:37:52;8.70;99.90
6788;DHT22;3431;47.966;10.268;2022-09-27T01:38:18;8.70;99.90
6788;DHT22;3431;47.966;10.268;2022-09-27T01:38:54;8.70;99.90
6788;DHT22;3431;47.966;10.268;2022-09-27T01:39:28;8.70;99.90
6788;DHT22;3431;47.966;10.268;2022-09-27T01:40:26;8.70;99.90
6788;DHT22;3431;47.966;10.268;2022-09-27T01:41:29;8.70;99.90
6788;DHT22;3431;47.966;10.268;2022-09-27T01:42:13;8.70;99.90
6788;DHT22;3431;47.966;10.268;2022-09-27T01:42:46;8.70;99.90
6788;DHT22;3431;47.966;10.268;2022-09-27T01:43:14;8.70;99.90
6788;DHT22;3431;47.966;10.268;2022-09-27T01:43:41;8.60;99.90
6788;DHT22;3431;47.966;10.268;2022-09-27T01:44:10;8.70;99.90
6788;DHT22;3431;47.966;10.268;2022-09-27T01:44:45;8.70;99.90
6788;DHT22;3431;47.966;10.268;2022-09-27T01:45:17;8.70;99.90
6788;DHT22;3431;47.966;10.268;2022-09-27T01:45:53;8.70;99.90
6788;DHT22;3431;47.966;10.268;2022-09-27T01:46:38;8.70;99.90
6788;DHT22;3431;47.966;10.268;2022-09-27T01:47:16;8.70;99.90
6788;DHT22;3431;47.966;10.268;2022-09-27T01:48:02;8.70;99.90
6788;DHT22;3431;47.966;10.268;2022-09-27T01:49:02;8.70;99.90
6788;DHT22;3431;47.966;10.268;2022-09-27T01:49:29;8.70;99.90
6788;DHT22;3431;47.966;10.268;2022-09-27T01:49:58;8.60;99.90
6788;DHT22;3431;47.966;10.268;2022-09-27T01:50:26;8.70;99.90
6788;DHT22;3431;47.966;10.268;2022-09-27T01:50:54;8.70;99.90
6788;DHT22;3431;47.966;10.268;2022-09-27T01:51:19;8.70;99.90
6788;DHT22;3431;47.966;10.268;2022-09-27T01:51:47;8.70;99.90
6788;DHT22;3431;47.966;10.268;2022-09-27T01:52:12;8.70;99.90
6788;DHT22;3431;47.966;10.268;2022-09-27T01:52:38;8.70;99.90
6788;DHT22;3431;47.966;10.268;2022-09-27T01:53:04;8.70;99.90
6788;DHT22;3431;47.966;10.268;2022-09-27T01:53:37;8.70;99.90
6788;DHT22;3431;47.966;10.268;2022-09-27T01:54:18;8.70;99.90
6788;DHT22;3431;47.966;10.268;2022-09-27T01:55:03;8.70;99.90
6788;DHT22;3431;47.966;10.268;2022-09-27T01:55:38;8.70;99.90
6788;DHT22;3431;47.966;10.268;2022-09-27T01:56:23;8.70;99.90
6788;DHT22;3431;47.966;10.268;2022-09-27T01:56:55;8.70;99.90
6788;DHT22;3431;47.966;10.268;2022-09-27T01:57:24;8.70;99.90
6788;DHT22;3431;47.966;10.268;2022-09-27T01:57:51;8.70;99.90
6788;DHT22;3431;47.966;10.268;2022-09-27T01:58:23;8.70;99.90
6788;DHT22;3431;47.966;10.268;2022-09-27T01:58:52;8.70;99.90
6788;DHT22;3431;47.966;10.268;2022-09-27T01:59:19;8.70;99.90
6788;DHT22;3431;47.966;10.268;2022-09-27T01:59:53;8.70;99.90
6788;DHT22;3431;47.966;10.268;2022-09-27T02:00:38;8.70;99.90
6788;DHT22;3431;47.966;10.268;2022-09-27T02:01:01;8.70;99.90
6788;DHT22;3431;47.966;10.268;2022-09-27T02:01:26;8.80;99.90
6788;DHT22;3431;47.966;10.268;2022-09-27T02:01:51;8.70;99.90
6788;DHT22;3431;47.966;10.268;2022-09-27T02:02:16;8.70;99.90
6788;DHT22;3431;47.966;10.268;2022-09-27T02:03:17;8.70;99.90
6788;DHT22;3431;47.966;10.268;2022-09-27T02:04:12;8.70;99.90
6788;DHT22;3431;47.966;10.268;2022-09-27T02:05:00;8.70;99.90
6788;DHT22;3431;47.966;10.268;2022-09-27T02:05:28;8.70;99.90
6788;DHT22;3431;47.966;10.268;2022-09-27T02:05:56;8.70;99.90
6788;DHT22;3431;47.966;10.268;2022-09-27T02:06:41;8.70;99.90
6788;DHT22;3431;47.966;10.268;2022-09-27T02:07:23;8.70;99.90
6788;DHT22;3431;47.966;10.268;2022-09-27T02:07:51;8.70;99.90
6788;DHT22;3431;47.966;10.268;2022-09-27T02:08:24;8.70;99.90
6788;DHT22;3431;47.966;10.268;2022-09-27T02:08:52;8.70;99.90
6788;DHT22;3431;47.966;10.268;2022-09-27T02:09:33;8.70;99.90
6788;DHT22;3431;47.966;10.268;2022-09-27T02:10:09;8.70;99.90
6788;DHT22;3431;47.966;10.268;2022-09-27T02:10:43;8.70;99.90
6788;DHT22;3431;47.966;10.268;2022-09-27T02:11:13;8.70;99.90
6788;DHT22;3431;47.966;10.268;2022-09-27T02:11:45;8.70;99.90
6788;DHT22;3431;47.966;10.268;2022-09-27T02:12:14;8.70;99.90
6788;DHT22;3431;47.966;10.268;2022-09-27T02:12:41;8.70;99.90
6788;DHT22;3431;47.966;10.268;2022-09-27T02:13:14;8.70;99.90
6788;DHT22;3431;47.966;10.268;2022-09-27T02:13:46;8.70;99.90
6788;DHT22;3431;47.966;10.268;2022-09-27T02:14:40;8.70;99.90
6788;DHT22;3431;47.966;10.268;2022-09-27T02:15:05;8.70;99.90
6788;DHT22;3431;47.966;10.268;2022-09-27T02:15:34;8.70;99.90
6788;DHT22;3431;47.966;10.268;2022-09-27T02:16:21;8.70;99.90
6788;DHT22;3431;47.966;10.268;2022-09-27T02:16:49;8.70;99.90
6788;DHT22;3431;47.966;10.268;2022-09-27T02:17:21;8.70;99.90
6788;DHT22;3431;47.966;10.268;2022-09-27T02:17:52;8.70;99.90
6788;DHT22;3431;47.966;10.268;2022-09-27T02:18:19;8.70;99.90
6788;DHT22;3431;47.966;10.268;2022-09-27T02:18:51;8.70;99.90
6788;DHT22;3431;47.966;10.268;2022-09-27T02:19:23;8.70;99.90
6788;DHT22;3431;47.966;10.268;2022-09-27T02:19:53;8.70;99.90
6788;DHT22;3431;47.966;10.268;2022-09-27T02:20:28;8.70;99.90
6788;DHT22;3431;47.966;10.268;2022-09-27T02:20:53;8.70;99.90
6788;DHT22;3431;47.966;10.268;2022-09-27T02:21:17;8.70;99.90
6788;DHT22;3431;47.966;10.268;2022-09-27T02:21:43;8.70;99.90
6788;DHT22;3431;47.966;10.268;2022-09-27T02:22:12;8.70;99.90
6788;DHT22;3431;47.966;10.268;2022-09-27T02:22:39;8.70;99.90
6788;DHT22;3431;47.966;10.268;2022-09-27T02:23:09;8.70;99.90
6788;DHT22;3431;47.966;10.268;2022-09-27T02:23:38;8.70;99.90
6788;DHT22;3431;47.966;10.268;2022-09-27T02:24:08;8.70;99.90
6788;DHT22;3431;47.966;10.268;2022-09-27T02:24:37;8.70;99.90
6788;DHT22;3431;47.966;10.268;2022-09-27T02:25:10;8.70;99.90
6788;DHT22;3431;47.966;10.268;2022-09-27T02:25:40;8.70;99.90
6788;DHT22;3431;47.966;10.268;2022-09-27T02:26:11;8.70;99.90
6788;DHT22;3431;47.966;10.268;2022-09-27T02:26:37;8.70;99.90
6788;DHT22;3431;47.966;10.268;2022-09-27T02:27:08;8.70;99.90
6788;DHT22;3431;47.966;10.268;2022-09-27T02:27:37;8.70;99.90
6788;DHT22;3431;47.966;10.268;2022-09-27T02:28:17;8.70;99.90
6788;DHT22;3431;47.966;10.268;2022-09-27T02:28:48;8.70;99.90
6788;DHT22;3431;47.966;10.268;2022-09-27T02:29:22;8.70;99.90
6788;DHT22;3431;47.966;10.268;2022-09-27T02:29:50;8.70;99.90
6788;DHT22;3431;47.966;10.268;2022-09-27T02:30:16;8.70;99.90
6788;DHT22;3431;47.966;10.268;2022-09-27T02:30:41;8.70;99.90
6788;DHT22;3431;47.966;10.268;2022-09-27T02:31:27;8.70;99.90
6788;DHT22;3431;47.966;10.268;2022-09-27T02:31:51;8.70;99.90
6788;DHT22;3431;47.966;10.268;2022-09-27T02:32:13;8.70;99.90
6788;DHT22;3431;47.966;10.268;2022-09-27T02:32:35;8.70;99.90
6788;DHT22;3431;47.966;10.268;2022-09-27T02:32:57;8.70;99.90
6788;DHT22;3431;47.966;10.268;2022-09-27T02:33:22;8.70;99.90
6788;DHT22;3431;47.966;10.268;2022-09-27T02:33:46;8.70;99.90
6788;DHT22;3431;47.966;10.268;2022-09-27T02:34:13;8.70;99.90
6788;DHT22;3431;47.966;10.268;2022-09-27T02:34:37;8.70;99.90
6788;DHT22;3431;47.966;10.268;2022-09-27T02:35:06;8.70;99.90
6788;DHT22;3431;47.966;10.268;2022-09-27T02:35:31;8.70;99.90
6788;DHT22;3431;47.966;10.268;2022-09-27T02:35:53;8.70;99.90
6788;DHT22;3431;47.966;10.268;2022-09-27T02:36:16;8.70;99.90
6788;DHT22;3431;47.966;10.268;2022-09-27T02:36:38;8.70;99.90
6788;DHT22;3431;47.966;10.268;2022-09-27T02:37:00;8.70;99.90
6788;DHT22;3431;47.966;10.268;2022-09-27T02:37:22;8.70;99.90
6788;DHT22;3431;47.966;10.268;2022-09-27T02:37:45;8.70;99.90
6788;DHT22;3431;47.966;10.268;2022-09-27T02:38:07;8.70;99.90
6788;DHT22;3431;47.966;10.268;2022-09-27T02:38:29;8.70;99.90
6788;DHT22;3431;47.966;10.268;2022-09-27T02:38:53;8.70;99.90
6788;DHT22;3431;47.966;10.268;2022-09-27T02:39:17;8.70;99.90
6788;DHT22;3431;47.966;10.268;2022-09-27T02:39:40;8.70;99.90
6788;DHT22;3431;47.966;10.268;2022-09-27T02:40:03;8.70;99.90
6788;DHT22;3431;47.966;10.268;2022-09-27T02:40:30;8.80;99.90
6788;DHT22;3431;47.966;10.268;2022-09-27T02:40:54;8.80;99.90
6788;DHT22;3431;47.966;10.268;2022-09-27T02:41:17;8.70;99.90
6788;DHT22;3431;47.966;10.268;2022-09-27T02:41:40;8.80;99.90
6788;DHT22;3431;47.966;10.268;2022-09-27T02:42:02;8.80;99.90
6788;DHT22;3431;47.966;10.268;2022-09-27T02:42:27;8.80;99.90
6788;DHT22;3431;47.966;10.268;2022-09-27T02:42:49;8.80;99.90
6788;DHT22;3431;47.966;10.268;2022-09-27T02:43:12;8.80;99.90
6788;DHT22;3431;47.966;10.268;2022-09-27T02:43:34;8.80;99.90
6788;DHT22;3431;47.966;10.268;2022-09-27T02:44:02;8.80;99.90
6788;DHT22;3431;47.966;10.268;2022-09-27T02:44:26;8.80;99.90
6788;DHT22;3431;47.966;10.268;2022-09-27T02:44:48;8.80;99.90
6788;DHT22;3431;47.966;10.268;2022-09-27T02:45:13;8.80;99.90
6788;DHT22;3431;47.966;10.268;2022-09-27T02:45:44;8.80;99.90
6788;DHT22;3431;47.966;10.268;2022-09-27T02:46:24;8.80;99.90
6788;DHT22;3431;47.966;10.268;2022-09-27T02:47:08;8.80;99.90
6788;DHT22;3431;47.966;10.268;2022-09-27T02:47:45;8.80;99.90
6788;DHT22;3431;47.966;10.268;2022-09-27T02:48:14;8.80;99.90
6788;DHT22;3431;47.966;10.268;2022-09-27T02:48:47;8.80;99.90
6788;DHT22;3431;47.966;10.268;2022-09-27T02:49:25;8.80;99.90
6788;DHT22;3431;47.966;10.268;2022-09-27T02:50:17;8.80;99.90
6788;DHT22;3431;47.966;10.268;2022-09-27T02:51:12;8.80;99.90
6788;DHT22;3431;47.966;10.268;2022-09-27T02:51:49;8.80;99.90
6788;DHT22;3431;47.966;10.268;2022-09-27T02:52:24;8.80;99.90
6788;DHT22;3431;47.966;10.268;2022-09-27T02:52:54;8.80;99.90
6788;DHT22;3431;47.966;10.268;2022-09-27T02:53:38;8.80;99.90
6788;DHT22;3431;47.966;10.268;2022-09-27T02:54:27;8.80;99.90
6788;DHT22;3431;47.966;10.268;2022-09-27T02:55:07;8.80;99.90
6788;DHT22;3431;47.966;10.268;2022-09-27T02:56:00;8.80;99.90
6788;DHT22;3431;47.966;10.268;2022-09-27T02:57:03;8.80;99.90
6788;DHT22;3431;47.966;10.268;2022-09-27T02:57:59;8.80;99.90
6788;DHT22;3431;47.966;10.268;2022-09-27T02:59:06;8.80;99.90
6788;DHT22;3431;47.966;10.268;2022-09-27T02:59:56;8.80;99.90
6788;DHT22;3431;47.966;10.268;2022-09-27T03:00:38;8.50;99.90
6788;DHT22;3431;47.966;10.268;2022-09-27T03:01:24;8.80;99.90
6788;DHT22;3431;47.966;10.268;2022-09-27T03:02:08;8.80;99.90
6788;DHT22;3431;47.966;10.268;2022-09-27T03:02:50;8.80;99.90
6788;DHT22;3431;47.966;10.268;2022-09-27T03:03:38;8.80;99.90
6788;DHT22;3431;47.966;10.268;2022-09-27T03:04:07;8.90;99.90
6788;DHT22;3431;47.966;10.268;2022-09-27T03:04:34;8.90;99.90
6788;DHT22;3431;47.966;10.268;2022-09-27T03:05:01;8.90;99.90
6788;DHT22;3431;47.966;10.268;2022-09-27T03:05:26;8.90;99.90
6788;DHT22;3431;47.966;10.268;2022-09-27T03:05:53;8.90;99.90
6788;DHT22;3431;47.966;10.268;2022-09-27T03:06:17;8.90;99.90
6788;DHT22;3431;47.966;10.268;2022-09-27T03:06:42;8.90;99.90
6788;DHT22;3431;47.966;10.268;2022-09-27T03:07:06;8.90;99.90
6788;DHT22;3431;47.966;10.268;2022-09-27T03:07:29;8.90;99.90
6788;DHT22;3431;47.966;10.268;2022-09-27T03:07:52;8.80;99.90
6788;DHT22;3431;47.966;10.268;2022-09-27T03:08:14;8.90;99.90
6788;DHT22;3431;47.966;10.268;2022-09-27T03:08:36;8.90;99.90